Time;durP1;ratioP1;P1;durP2;ratioP2;P2;SDS_P1;SDS_P2;PMS_P1;PMS_P2;Temp;Humidity;BMP_temperature;BMP_pressure;BME280_temperature;BME280_humidity;BME280_pressure;Samples;Min_cycle;Max_cycle;Signal;HPM_P1;HPM_P2
2021/12/21 00:00:18;;;;;;;26.27;10.90;;;;;;;-1.20;100.00;102478.97;4977087;28;20035;-79
2021/12/21 00:02:48;;;;;;;35.03;10.38;;;;;;;-1.17;100.00;102481.66;4994820;28;20103;-79
2021/12/21 00:05:20;;;;;;;33.90;11.77;;;;;;;-1.23;100.00;102468.25;4995773;28;20062;-80
2021/12/21 00:07:48;;;;;;;40.67;12.13;;;;;;;-1.12;100.00;102471.78;4995924;28;20022;-80
2021/12/21 00:10:13;;;;;;;32.47;10.55;;;;;;;-1.34;100.00;102474.56;4993518;28;20034;-79
2021/12/21 00:12:49;;;;;;;28.50;10.27;;;;;;;-1.48;100.00;102476.38;4995591;28;20023;-78
2021/12/21 00:15:25;;;;;;;35.45;9.63;;;;;;;-1.32;100.00;102472.75;4992123;28;20046;-79
2021/12/21 00:18:03;;;;;;;42.80;11.70;;;;;;;-1.35;100.00;102464.69;4989769;28;20066;-79
2021/12/21 00:20:51;;;;;;;39.42;10.98;;;;;;;-1.42;100.00;102460.25;4981215;28;20085;-79
2021/12/21 00:25:55;;;;;;;29.33;10.30;;;;;;;-1.33;100.00;102468.28;4997115;28;20047;-79
2021/12/21 00:28:20;;;;;;;28.85;9.85;;;;;;;-1.37;100.00;102461.13;4988009;28;20030;-79
2021/12/21 00:30:46;;;;;;;41.42;11.75;;;;;;;-1.34;100.00;102453.06;4997510;28;20074;-79
2021/12/21 00:33:12;;;;;;;37.78;10.48;;;;;;;-1.52;100.00;102455.81;4993679;28;20043;-79
2021/12/21 00:35:37;;;;;;;32.58;10.57;;;;;;;-1.63;100.00;102458.53;4990952;28;20046;-79
2021/12/21 00:38:04;;;;;;;31.52;8.80;;;;;;;-1.64;100.00;102455.84;4981851;28;20066;-79
2021/12/21 00:40:31;;;;;;;29.27;9.48;;;;;;;-1.68;100.00;102461.22;4999706;28;20038;-79
2021/12/21 00:42:56;;;;;;;35.28;11.30;;;;;;;-1.55;100.00;102463.88;4996438;28;20039;-80
2021/12/21 00:45:22;;;;;;;34.83;10.05;;;;;;;-1.63;100.00;102455.84;5003180;28;20037;-78
2021/12/21 00:47:48;;;;;;;37.85;9.98;;;;;;;-1.71;100.00;102449.59;4980745;28;20034;-79
2021/12/21 00:50:17;;;;;;;37.33;10.93;;;;;;;-1.81;100.00;102454.09;4988398;28;20035;-79
2021/12/21 00:52:44;;;;;;;40.63;9.80;;;;;;;-1.65;100.00;102444.22;4974203;28;20042;-80
2021/12/21 00:55:10;;;;;;;29.85;10.57;;;;;;;-1.53;100.00;102448.66;4993074;28;20042;-79
2021/12/21 00:57:35;;;;;;;31.27;9.35;;;;;;;-1.62;100.00;102433.47;4990206;28;20398;-80
2021/12/21 01:00:01;;;;;;;36.85;10.90;;;;;;;-1.63;100.00;102442.41;4991492;28;20038;-79
2021/12/21 01:02:27;;;;;;;46.17;11.68;;;;;;;-1.74;100.00;102433.47;4997713;28;20366;-78
2021/12/21 01:04:55;;;;;;;33.33;10.15;;;;;;;-1.89;100.00;102431.72;4989882;28;20113;-79
2021/12/21 01:07:28;;;;;;;33.05;10.13;;;;;;;-2.00;100.00;102431.78;4998477;28;20041;-78
2021/12/21 01:12:39;;;;;;;32.13;9.65;;;;;;;-1.86;100.00;102440.66;4997439;28;20487;-78
2021/12/21 01:15:24;;;;;;;35.15;10.90;;;;;;;-1.73;100.00;102441.53;5002882;28;20043;-79
2021/12/21 01:18:27;;;;;;;38.95;10.52;;;;;;;-1.93;100.00;102438.91;5000477;28;20031;-78
2021/12/21 01:20:48;;;;;;;35.97;11.45;;;;;;;-1.92;100.00;102447.84;4996043;28;20069;-78
2021/12/21 01:36:02;;;;;;;29.38;10.43;;;;;;;-1.88;100.00;102436.22;4996462;28;20380;-80
2021/12/21 01:38:40;;;;;;;44.40;11.52;;;;;;;-1.74;100.00;102438.84;4984616;28;20125;-80
2021/12/21 01:41:20;;;;;;;33.22;9.68;;;;;;;-1.87;100.00;102422.78;4986092;28;20038;-79
2021/12/21 01:43:59;;;;;;;28.23;10.38;;;;;;;-1.98;100.00;102427.28;4977816;28;20407;-79
2021/12/21 01:51:52;;;;;;;37.42;11.20;;;;;;;-1.81;100.00;102437.09;4989945;28;20073;-79
2021/12/21 01:54:18;;;;;;;42.17;11.45;;;;;;;-1.91;100.00;102436.22;4988062;28;20035;-79
2021/12/21 01:56:43;;;;;;;40.95;12.40;;;;;;;-1.88;100.00;102430.84;4999889;28;20046;-79
2021/12/21 01:59:09;;;;;;;36.40;11.50;;;;;;;-1.83;100.00;102423.66;4980861;28;20045;-78
2021/12/21 02:01:35;;;;;;;44.30;11.98;;;;;;;-1.91;100.00;102441.59;4993454;28;20034;-79
2021/12/21 02:04:01;;;;;;;43.90;11.43;;;;;;;-1.89;100.00;102423.69;4987354;28;20131;-79
2021/12/21 02:06:28;;;;;;;36.90;10.60;;;;;;;-1.85;100.00;102433.53;4968484;28;20122;-79
2021/12/21 02:08:54;;;;;;;40.28;12.40;;;;;;;-1.95;100.00;102418.31;4982482;28;20031;-79
2021/12/21 02:11:21;;;;;;;47.35;11.65;;;;;;;-2.00;100.00;102431.78;5011231;28;20515;-79
2021/12/21 02:13:49;;;;;;;39.08;11.45;;;;;;;-2.02;100.00;102425.47;4993187;28;20038;-79
2021/12/21 02:16:23;;;;;;;51.42;13.88;;;;;;;-2.04;100.00;102420.13;4992853;28;20041;-80
2021/12/21 02:19:01;;;;;;;47.70;13.60;;;;;;;-1.98;100.00;102412.94;4994082;28;20054;-79
2021/12/21 02:23:59;;;;;;;40.85;12.60;;;;;;;-2.00;100.00;102404.94;4988890;28;20093;-79
2021/12/21 02:29:16;;;;;;;43.90;13.05;;;;;;;-2.01;100.00;102408.50;5003730;28;20038;-79
2021/12/21 02:31:48;;;;;;;39.78;11.85;;;;;;;-2.01;100.00;102408.50;4996918;28;20033;-79
2021/12/21 02:34:14;;;;;;;47.17;13.35;;;;;;;-2.02;100.00;102412.06;4995269;28;20031;-78
2021/12/21 02:36:42;;;;;;;48.83;11.23;;;;;;;-2.11;100.00;102406.72;5000726;28;20117;-79
2021/12/21 02:39:08;;;;;;;48.22;12.55;;;;;;;-2.13;100.00;102405.81;4987733;28;20371;-79
2021/12/21 02:41:36;;;;;;;54.05;13.18;;;;;;;-2.22;100.00;102402.25;4998892;28;20382;-79
2021/12/21 02:44:02;;;;;;;45.30;12.18;;;;;;;-2.25;100.00;102414.78;4996323;28;20051;-79
2021/12/21 02:46:28;;;;;;;45.45;13.35;;;;;;;-2.19;100.00;102413.91;4982982;28;20057;-79
2021/12/21 02:48:53;;;;;;;41.00;14.07;;;;;;;-2.18;100.00;102395.13;5005322;28;20049;-78
2021/12/21 02:51:19;;;;;;;44.47;13.15;;;;;;;-2.28;100.00;102409.41;4994366;28;20062;-78
2021/12/21 02:53:45;;;;;;;39.45;12.68;;;;;;;-2.34;100.00;102404.97;4992411;28;20035;-79
2021/12/21 02:56:12;;;;;;;37.58;14.25;;;;;;;-2.32;100.00;102407.63;4989476;28;20035;-79
2021/12/21 02:58:38;;;;;;;50.10;13.40;;;;;;;-2.29;100.00;102410.31;4984139;28;20034;-78
2021/12/21 03:01:06;;;;;;;55.08;14.70;;;;;;;-2.27;100.00;102408.53;4983680;28;20475;-79
2021/12/21 03:03:32;;;;;;;48.08;13.70;;;;;;;-2.23;100.00;102410.28;4995319;28;20030;-78
2021/12/21 03:05:58;;;;;;;53.97;13.82;;;;;;;-2.23;100.00;102405.84;4984143;28;20052;-79
2021/12/21 03:08:36;;;;;;;54.05;13.95;;;;;;;-2.16;100.00;102405.84;4987734;28;20425;-79
2021/12/21 03:11:24;;;;;;;49.17;13.60;;;;;;;-2.13;100.00;102404.06;4993386;28;20114;-79
2021/12/21 03:14:11;;;;;;;40.38;13.70;;;;;;;-2.15;100.00;102410.31;4993846;28;20387;-79
2021/12/21 03:16:39;;;;;;;47.70;13.93;;;;;;;-2.22;100.00;102396.88;4993145;28;20038;-79
2021/12/21 03:19:07;;;;;;;52.25;14.63;;;;;;;-2.24;100.00;102405.84;4989546;28;20039;-79
2021/12/21 03:21:34;;;;;;;56.40;15.32;;;;;;;-2.23;100.00;102402.25;4968550;28;20042;-79
2021/12/21 03:24:01;;;;;;;46.50;14.50;;;;;;;-2.14;100.00;102399.56;4988463;28;20034;-79
2021/12/21 03:26:27;;;;;;;49.88;14.07;;;;;;;-2.17;100.00;102390.63;4974537;28;20071;-79
2021/12/21 03:28:53;;;;;;;54.15;15.45;;;;;;;-2.14;100.00;102396.00;4988803;28;20034;-80
2021/12/21 03:31:19;;;;;;;57.08;15.52;;;;;;;-2.17;100.00;102399.56;4992032;28;20086;-80
2021/12/21 03:33:45;;;;;;;57.25;16.70;;;;;;;-2.13;100.00;102396.00;4984390;28;20445;-80
2021/12/21 03:36:11;;;;;;;48.42;16.02;;;;;;;-2.16;100.00;102390.63;4981707;28;20043;-79
2021/12/21 03:38:39;;;;;;;56.88;15.07;;;;;;;-2.19;100.00;102381.72;4988865;28;20034;-80
2021/12/21 03:41:11;;;;;;;68.28;16.70;;;;;;;-2.16;100.00;102382.59;4974774;28;20106;-79
2021/12/21 03:43:36;;;;;;;46.58;15.73;;;;;;;-2.26;100.00;102381.72;5000866;28;20022;-79
2021/12/21 03:46:10;;;;;;;47.38;14.90;;;;;;;-2.27;100.00;102373.66;4982710;28;20085;-80
2021/12/21 03:48:38;;;;;;;47.13;16.02;;;;;;;-2.11;100.00;102379.91;4982447;28;20062;-79
2021/12/21 03:51:04;;;;;;;50.88;15.48;;;;;;;-2.11;100.00;102382.59;4991112;28;20047;-79
2021/12/21 03:53:30;;;;;;;59.00;15.40;;;;;;;-2.16;100.00;102385.28;4999865;28;20142;-79
2021/12/21 03:56:37;;;;;;;46.22;14.23;;;;;;;-2.11;100.00;102387.94;4991455;28;20026;-79
2021/12/21 03:58:47;;;;;;;63.90;14.35;;;;;;;-2.18;100.00;102378.09;4983312;28;20039;-79
2021/12/21 04:01:13;;;;;;;54.13;16.70;;;;;;;-2.05;100.00;102379.88;4995186;28;20409;-79
2021/12/21 04:03:39;;;;;;;45.90;14.23;;;;;;;-2.15;100.00;102373.63;4987001;28;20042;-79
2021/12/21 04:06:06;;;;;;;47.55;13.88;;;;;;;-2.23;100.00;102384.38;4978272;28;20418;-79
2021/12/21 04:08:31;;;;;;;54.83;13.68;;;;;;;-2.15;100.00;102372.75;4992003;28;20081;-79
2021/12/21 04:10:57;;;;;;;39.63;14.48;;;;;;;-2.18;100.00;102367.38;4980893;28;20035;-79
2021/12/21 04:13:23;;;;;;;48.85;16.33;;;;;;;-2.22;100.00;102377.22;4977180;28;20097;-78
2021/12/21 04:15:52;;;;;;;52.08;14.80;;;;;;;-2.30;100.00;102376.34;4985336;28;20031;-79
2021/12/21 04:18:20;;;;;;;44.85;13.23;;;;;;;-2.34;100.00;102370.09;4989655;28;20045;-79
2021/12/21 04:20:46;;;;;;;53.60;14.48;;;;;;;-2.46;100.00;102376.38;4982303;28;20027;-78
2021/12/21 04:23:11;;;;;;;42.00;13.60;;;;;;;-2.48;100.00;102386.16;4986553;28;20528;-77
2021/12/21 04:25:37;;;;;;;53.25;15.25;;;;;;;-2.36;100.00;102395.09;4985768;28;20042;-79
2021/12/21 04:28:03;;;;;;;50.38;15.68;;;;;;;-2.45;100.00;102386.19;4991368;28;20038;-79
2021/12/21 04:30:28;;;;;;;50.55;13.88;;;;;;;-2.50;100.00;102381.72;4996639;28;20027;-78
2021/12/21 04:32:54;;;;;;;45.97;15.20;;;;;;;-2.46;100.00;102379.03;4974289;28;20038;-78
2021/12/21 04:35:20;;;;;;;47.00;14.10;;;;;;;-2.31;100.00;102398.69;5008908;28;20057;-78
2021/12/21 04:37:57;;;;;;;50.53;15.90;;;;;;;-2.32;100.00;102391.56;4988470;28;20062;-79
2021/12/21 04:40:35;;;;;;;44.55;14.55;;;;;;;-2.29;100.00;102380.81;4974961;28;20069;-79
2021/12/21 04:43:01;;;;;;;44.25;15.18;;;;;;;-2.40;100.00;102378.13;4987997;28;20121;-79
2021/12/21 04:45:26;;;;;;;49.83;16.17;;;;;;;-2.43;100.00;102375.44;4993958;28;20080;-78
2021/12/21 04:47:52;;;;;;;53.28;14.90;;;;;;;-2.41;100.00;102363.84;4984509;28;20100;-79
2021/12/21 04:50:17;;;;;;;48.15;15.20;;;;;;;-2.37;100.00;102363.84;5007845;28;20061;-79
2021/12/21 04:52:43;;;;;;;47.25;14.60;;;;;;;-2.52;100.00;102364.75;4997504;28;20057;-79
2021/12/21 04:55:09;;;;;;;42.67;14.73;;;;;;;-2.53;100.00;102369.19;4995507;28;20031;-79
2021/12/21 04:57:34;;;;;;;56.38;14.88;;;;;;;-2.52;100.00;102368.31;5009469;28;20034;-79
2021/12/21 04:59:59;;;;;;;54.05;15.00;;;;;;;-2.45;100.00;102369.19;4993073;28;20391;-79
2021/12/21 05:02:25;;;;;;;43.92;14.55;;;;;;;-2.41;100.00;102358.47;4990218;28;20447;-79
2021/12/21 05:04:50;;;;;;;54.40;16.70;;;;;;;-2.45;100.00;102353.13;4969904;28;20031;-78
2021/12/21 05:07:22;;;;;;;55.88;14.60;;;;;;;-2.42;100.00;102363.84;4989159;28;20030;-79
2021/12/21 05:09:55;;;;;;;51.20;14.88;;;;;;;-2.37;100.00;102367.41;4991142;28;20035;-78
2021/12/21 05:12:21;;;;;;;49.20;15.13;;;;;;;-2.46;100.00;102354.91;4981891;28;20245;-79
2021/12/21 05:14:47;;;;;;;39.22;14.25;;;;;;;-2.48;100.00;102374.56;5010118;28;20042;-78
2021/12/21 05:17:12;;;;;;;45.75;13.77;;;;;;;-2.50;100.00;102377.25;4986783;28;20041;-80
2021/12/21 05:19:38;;;;;;;39.22;13.57;;;;;;;-2.38;100.00;102375.44;4990860;28;20044;-79
2021/12/21 05:22:03;;;;;;;51.65;14.05;;;;;;;-2.44;100.00;102381.72;4993911;28;20035;-78
2021/12/21 05:24:29;;;;;;;46.20;13.52;;;;;;;-2.42;100.00;102372.78;5000058;28;20069;-79
2021/12/21 05:26:54;;;;;;;46.00;14.90;;;;;;;-2.42;100.00;102371.88;4983164;28;20042;-79
2021/12/21 05:29:20;;;;;;;47.40;13.93;;;;;;;-2.34;100.00;102383.50;4980864;28;20027;-79
2021/12/21 05:31:46;;;;;;;41.70;15.23;;;;;;;-2.28;100.00;102374.53;5000401;28;20043;-79
2021/12/21 05:34:11;;;;;;;57.13;14.80;;;;;;;-2.47;100.00;102363.84;5001729;28;20038;-79
2021/12/21 05:36:37;;;;;;;52.47;14.40;;;;;;;-2.55;100.00;102367.44;4997032;28;20062;-79
2021/12/21 05:39:05;;;;;;;49.08;15.27;;;;;;;-2.63;100.00;102365.63;4988551;28;20053;-79
2021/12/21 05:41:48;;;;;;;52.78;13.63;;;;;;;-2.58;100.00;102377.22;4987337;28;20123;-79
2021/12/21 05:44:14;;;;;;;59.17;15.95;;;;;;;-2.56;100.00;102371.88;4997283;28;20166;-79
2021/12/21 05:46:40;;;;;;;45.58;15.38;;;;;;;-2.53;100.00;102381.72;4989103;28;20049;-79
2021/12/21 05:49:06;;;;;;;56.03;14.68;;;;;;;-2.55;100.00;102383.50;4999793;28;20026;-78
2021/12/21 05:51:31;;;;;;;43.05;14.70;;;;;;;-2.58;100.00;102373.66;5000521;28;20034;-78
2021/12/21 05:53:57;;;;;;;37.58;13.93;;;;;;;-2.59;100.00;102382.63;4999083;28;20085;-78
2021/12/21 05:56:22;;;;;;;47.72;14.57;;;;;;;-2.66;100.00;102379.03;4988611;28;20022;-78
2021/12/21 05:58:48;;;;;;;47.88;13.77;;;;;;;-2.64;100.00;102381.69;4998263;28;20447;-78
2021/12/21 06:01:14;;;;;;;44.67;15.27;;;;;;;-2.61;100.00;102384.38;4998394;28;20121;-78
2021/12/21 06:03:39;;;;;;;42.78;13.93;;;;;;;-2.64;100.00;102379.03;4998089;28;20113;-77
2021/12/21 06:06:11;;;;;;;51.10;15.05;;;;;;;-2.54;100.00;102378.16;4988254;28;20062;-79
2021/12/21 06:08:36;;;;;;;43.05;14.07;;;;;;;-2.57;100.00;102380.84;4995644;28;20038;-79
2021/12/21 06:11:05;;;;;;;43.78;13.95;;;;;;;-2.67;100.00;102377.25;4985958;28;20042;-79
2021/12/21 06:25:12;;;;;;;49.63;13.75;;;;;;;-2.57;100.00;102386.19;4987817;28;20069;-79
2021/12/21 06:27:00;;;;;;;41.15;12.85;;;;;;;-2.62;100.00;102382.63;4986209;28;20572;-79
2021/12/21 06:29:25;;;;;;;48.90;13.60;;;;;;;-2.66;100.00;102370.97;4989637;28;20034;-78
2021/12/21 06:31:51;;;;;;;43.65;14.50;;;;;;;-2.65;100.00;102371.91;4984370;28;20038;-77
2021/12/21 06:34:17;;;;;;;55.38;14.32;;;;;;;-2.74;100.00;102377.25;5007483;28;20115;-78
2021/12/21 06:36:43;;;;;;;38.95;13.45;;;;;;;-2.72;100.00;102359.38;4997360;28;20039;-78
2021/12/21 06:39:09;;;;;;;41.70;13.80;;;;;;;-2.69;100.00;102372.78;5000169;28;20122;-79
2021/12/21 06:41:35;;;;;;;45.35;13.88;;;;;;;-2.71;100.00;102386.16;4979068;28;20674;-78
2021/12/21 06:44:03;;;;;;;42.95;13.30;;;;;;;-2.72;100.00;102381.72;4984968;28;20097;-79
2021/12/21 06:46:53;;;;;;;41.05;14.18;;;;;;;-2.79;100.00;102380.81;4998289;28;20398;-79
2021/12/21 06:52:04;;;;;;;41.83;13.77;;;;;;;-2.86;100.00;102370.97;4985634;28;20067;-79
2021/12/21 06:54:30;;;;;;;43.85;14.95;;;;;;;-2.82;100.00;102372.78;4987764;28;20424;-79
2021/12/21 06:56:56;;;;;;;42.60;15.55;;;;;;;-2.78;100.00;102377.22;4987280;28;20093;-79
2021/12/21 06:59:21;;;;;;;53.17;15.00;;;;;;;-2.78;100.00;102379.03;4985445;28;20030;-80
2021/12/21 07:01:48;;;;;;;49.05;13.95;;;;;;;-2.85;100.00;102377.25;4991673;28;20505;-79
2021/12/21 07:04:17;;;;;;;33.67;13.95;;;;;;;-2.85;100.00;102385.28;4992037;28;20098;-79
2021/12/21 07:06:44;;;;;;;48.42;15.15;;;;;;;-2.94;100.00;102391.50;4995434;28;20034;-79
2021/12/21 07:09:13;;;;;;;42.15;14.13;;;;;;;-2.90;100.00;102389.72;4979279;28;20079;-79
2021/12/21 07:11:51;;;;;;;52.00;14.32;;;;;;;-2.94;100.00;102385.25;4996103;28;20405;-78
2021/12/21 07:19:45;;;;;;;44.10;13.73;;;;;;;-2.92;100.00;102396.88;4983239;28;20035;-80
2021/12/21 07:22:11;;;;;;;50.95;13.68;;;;;;;-2.88;100.00;102396.00;4991897;28;20035;-79
2021/12/21 07:24:37;;;;;;;39.63;13.88;;;;;;;-2.87;100.00;102390.66;4980706;28;20039;-79
2021/12/21 07:27:03;;;;;;;56.42;14.48;;;;;;;-2.91;100.00;102396.88;4967076;28;20043;-79
2021/12/21 07:29:29;;;;;;;44.95;13.55;;;;;;;-2.89;100.00;102396.88;4980707;28;20561;-79
2021/12/21 07:31:55;;;;;;;48.80;14.75;;;;;;;-2.84;100.00;102395.97;4993219;28;20062;-79
2021/12/21 07:34:20;;;;;;;35.65;14.02;;;;;;;-2.78;100.00;102390.63;4981009;28;20130;-81
2021/12/21 07:36:46;;;;;;;40.58;13.90;;;;;;;-2.82;100.00;102379.91;4988734;28;20410;-82
2021/12/21 07:39:14;;;;;;;39.08;14.70;;;;;;;-2.83;100.00;102379.00;4983138;28;20434;-80
2021/12/21 07:41:41;;;;;;;42.60;13.57;;;;;;;-2.72;100.00;102392.44;4978915;28;20041;-80
2021/12/21 07:44:07;;;;;;;40.38;13.25;;;;;;;-2.80;100.00;102408.50;4995423;28;20490;-80
2021/12/21 07:46:33;;;;;;;41.30;12.65;;;;;;;-2.89;100.00;102400.44;4996137;28;20038;-78
2021/12/21 07:48:59;;;;;;;41.45;13.90;;;;;;;-2.82;100.00;102401.34;4983554;28;20037;-79
2021/12/21 07:51:25;;;;;;;49.00;15.98;;;;;;;-2.86;100.00;102400.44;4991838;28;20497;-79
2021/12/21 07:53:51;;;;;;;52.83;13.35;;;;;;;-2.77;100.00;102411.19;4982381;28;20035;-81
2021/12/21 07:56:16;;;;;;;474.60;209.93;;;;;;;-2.80;100.00;102403.16;4994405;28;20035;-80
2021/12/21 07:58:44;;;;;;;54.85;20.83;;;;;;;-2.83;100.00;102403.13;4988886;28;20114;-79
2021/12/21 08:01:09;;;;;;;51.42;14.05;;;;;;;-2.98;100.00;102412.03;4995229;28;20102;-80
2021/12/21 08:03:35;;;;;;;38.72;14.38;;;;;;;-3.06;100.00;102403.09;4991526;28;20031;-80
2021/12/21 08:06:03;;;;;;;50.17;13.75;;;;;;;-2.98;100.00;102408.47;4986488;28;20062;-80
2021/12/21 08:08:30;;;;;;;43.55;13.88;;;;;;;-2.82;100.00;102414.75;4984148;28;20094;-81
2021/12/21 08:11:28;;;;;;;37.38;13.10;;;;;;;-2.84;100.00;102417.41;4981216;28;20034;-80
2021/12/21 08:13:56;;;;;;;33.97;12.23;;;;;;;-2.83;100.00;102411.19;4985571;28;20031;-78
2021/12/21 08:16:22;;;;;;;44.25;12.63;;;;;;;-2.84;100.00;102409.38;4996766;28;20030;-79
2021/12/21 08:18:47;;;;;;;42.13;13.90;;;;;;;-3.01;100.00;102406.69;4982692;28;20052;-78
2021/12/21 08:21:16;;;;;;;45.30;14.95;;;;;;;-2.91;100.00;102407.59;4978040;28;20042;-79
2021/12/21 08:23:42;;;;;;;46.97;15.52;;;;;;;-2.88;100.00;102415.63;4989879;28;20050;-79
2021/12/21 08:26:08;;;;;;;38.47;14.43;;;;;;;-2.90;100.00;102420.09;4990769;28;20050;-79
2021/12/21 08:28:34;;;;;;;42.75;14.80;;;;;;;-2.83;100.00;102419.22;4982886;28;20049;-79
2021/12/21 08:31:00;;;;;;;32.28;12.95;;;;;;;-2.74;100.00;102423.69;4979158;28;20043;-78
2021/12/21 08:33:26;;;;;;;40.90;14.77;;;;;;;-2.92;100.00;102421.88;4985255;28;20038;-78
2021/12/21 08:35:51;;;;;;;41.72;15.02;;;;;;;-2.78;100.00;102429.94;4992809;28;20041;-79
2021/12/21 08:38:19;;;;;;;40.45;14.55;;;;;;;-2.77;100.00;102421.03;4989159;28;20130;-81
2021/12/21 08:40:49;;;;;;;43.15;14.30;;;;;;;-2.72;100.00;102419.25;4982665;28;20039;-79
2021/12/21 08:43:18;;;;;;;56.05;15.60;;;;;;;-2.75;100.00;102411.19;4977889;28;20073;-79
2021/12/21 08:45:46;;;;;;;52.47;16.27;;;;;;;-2.70;100.00;102412.09;4987448;28;20042;-78
2021/12/21 08:48:13;;;;;;;48.63;16.58;;;;;;;-2.53;100.00;102413.91;4994001;28;20035;-78
2021/12/21 08:50:39;;;;;;;48.08;17.42;;;;;;;-2.46;100.00;102413.91;4979516;28;20035;-78
2021/12/21 08:53:05;;;;;;;47.95;17.77;;;;;;;-2.48;100.00;102406.75;4984498;28;20039;-78
2021/12/21 08:55:31;;;;;;;53.72;17.45;;;;;;;-2.45;100.00;102406.75;4968254;28;20033;-79
2021/12/21 08:57:57;;;;;;;44.97;16.00;;;;;;;-2.49;100.00;102408.53;4985799;28;20049;-79
2021/12/21 09:00:23;;;;;;;46.92;17.10;;;;;;;-2.38;100.00;102400.47;4970906;28;20058;-79
2021/12/21 09:02:50;;;;;;;57.47;17.50;;;;;;;-2.37;100.00;102404.97;4980035;28;20090;-79
2021/12/21 09:05:19;;;;;;;48.88;17.13;;;;;;;-2.31;100.00;102404.97;4977911;28;20465;-77
2021/12/21 09:07:47;;;;;;;47.08;17.67;;;;;;;-2.28;100.00;102414.78;4978423;28;20042;-80
2021/12/21 09:10:16;;;;;;;48.17;18.38;;;;;;;-2.26;100.00;102411.22;4961913;28;20486;-80
2021/12/21 09:12:42;;;;;;;62.58;19.92;;;;;;;-2.24;100.00;102411.22;4986469;28;20037;-78
2021/12/21 09:15:09;;;;;;;52.95;18.63;;;;;;;-2.15;100.00;102416.56;4980478;28;20042;-79
2021/12/21 09:17:35;;;;;;;54.65;20.92;;;;;;;-2.16;100.00;102409.41;4978792;28;20038;-79
2021/12/21 09:20:01;;;;;;;1037.75;594.97;;;;;;;-2.12;100.00;102403.13;4980849;28;20050;-79
2021/12/21 09:22:27;;;;;;;208.68;86.50;;;;;;;-2.06;100.00;102405.81;4986389;28;20474;-80
2021/12/21 09:24:52;;;;;;;71.63;28.02;;;;;;;-1.99;100.00;102411.19;4986784;28;20409;-79
2021/12/21 09:27:18;;;;;;;60.15;23.25;;;;;;;-1.94;100.00;102420.13;4972124;28;20047;-80
2021/12/21 09:29:45;;;;;;;57.67;21.48;;;;;;;-1.87;100.00;102404.00;4999656;28;20125;-79
2021/12/21 09:32:13;;;;;;;59.78;22.83;;;;;;;-1.81;100.00;102416.50;4983666;28;20050;-80
2021/12/21 09:34:42;;;;;;;60.95;20.95;;;;;;;-1.73;100.00;102429.91;4990091;28;20038;-81
2021/12/21 09:37:14;;;;;;;47.53;21.25;;;;;;;-1.58;100.00;102416.44;4984559;28;20030;-81
2021/12/21 09:39:41;;;;;;;48.40;21.03;;;;;;;-1.43;100.00;102417.28;4989220;28;20092;-79
2021/12/21 09:42:08;;;;;;;59.85;21.85;;;;;;;-1.21;100.00;102426.16;4983820;28;20380;-78
2021/12/21 09:44:33;;;;;;;52.05;19.30;;;;;;;-1.08;100.00;102411.75;5002940;28;20031;-78
2021/12/21 09:46:59;;;;;;;49.92;19.63;;;;;;;-1.01;100.00;102426.94;4992454;28;20034;-79
2021/12/21 09:49:25;;;;;;;56.22;20.52;;;;;;;-0.94;100.00;102419.72;4989536;28;20034;-78
2021/12/21 09:51:51;;;;;;;57.97;19.48;;;;;;;-0.67;100.00;102418.66;4993944;28;20037;-79
2021/12/21 09:54:19;;;;;;;57.25;20.00;;;;;;;-0.46;100.00;102414.00;4972218;28;20054;-78
2021/12/21 09:56:45;;;;;;;47.30;18.35;;;;;;;-0.50;100.00;102418.53;4976838;28;20137;-77
2021/12/21 09:59:11;;;;;;;45.10;18.70;;;;;;;-0.32;100.00;102409.41;4974808;28;20050;-79
2021/12/21 10:01:37;;;;;;;46.47;19.08;;;;;;;-0.38;100.00;102414.84;4993974;28;20034;-79
2021/12/21 10:04:02;;;;;;;41.88;17.77;;;;;;;-0.21;100.00;102410.22;4981764;28;20093;-78
2021/12/21 10:06:28;;;;;;;43.85;16.30;;;;;;;-0.21;100.00;102415.59;4979700;28;20045;-78
2021/12/21 10:09:05;;;;;;;53.15;17.77;;;;;;;-0.13;100.00;102411.94;4985033;28;20163;-77
2021/12/21 10:11:41;;;;;;;50.45;17.30;;;;;;;-0.14;100.00;102404.78;4992425;28;20034;-78
2021/12/21 10:14:07;;;;;;;39.88;15.88;;;;;;;-0.05;100.00;102397.50;4987001;28;20031;-78
2021/12/21 10:16:32;;;;;;;43.88;16.00;;;;;;;0.11;100.00;102400.03;4990619;28;20027;-77
2021/12/21 10:18:58;;;;;;;56.72;17.90;;;;;;;0.27;100.00;102396.25;4989246;28;20038;-77
2021/12/21 10:21:23;;;;;;;47.45;16.50;;;;;;;0.23;100.00;102386.44;4970426;28;20451;-78
2021/12/21 10:23:51;;;;;;;43.53;15.88;;;;;;;0.65;100.00;102394.03;4991855;28;20243;-78
2021/12/21 10:26:24;;;;;;;36.35;15.45;;;;;;;0.65;100.00;102402.09;4989711;28;20047;-77
2021/12/21 10:28:51;;;;;;;;;;;;;;;0.82;100.00;102397.41;4989547;28;20467;-78
2021/12/21 10:31:36;;;;;;;44.20;15.00;;;;;;;0.90;100.00;102402.66;4979362;28;19921;-78
2021/12/21 10:34:10;;;;;;;34.95;14.70;;;;;;;1.09;100.00;102387.13;4982333;28;20666;-78
2021/12/21 10:36:57;;;;;;;36.92;15.63;;;;;;;0.95;100.00;102387.31;4980454;28;20114;-78
2021/12/21 10:39:27;;;;;;;36.13;15.10;;;;;;;1.09;100.00;102381.72;4984268;28;20042;-78
2021/12/21 10:41:56;;;;;;;36.08;14.15;;;;;;;1.43;100.00;102382.09;4986654;28;20022;-79
2021/12/21 10:44:22;;;;;;;30.45;13.32;;;;;;;1.33;100.00;102384.94;4983339;28;20643;-79
2021/12/21 10:46:50;;;;;;;37.88;14.40;;;;;;;1.44;100.00;102369.47;4967159;28;20158;-78
2021/12/21 10:49:27;;;;;;;38.55;14.77;;;;;;;1.39;100.00;102364.16;4985548;28;20058;-80
2021/12/21 10:51:56;;;;;;;37.45;14.40;;;;;;;1.70;100.00;102369.03;5009806;28;20065;-79
2021/12/21 10:54:33;;;;;;;42.30;15.23;;;;;;;1.69;100.00;102364.56;5006804;28;20034;-79
2021/12/21 10:57:00;;;;;;;44.90;15.43;;;;;;;1.84;100.00;102372.38;4985711;28;20030;-78
2021/12/21 10:59:31;;;;;;;30.40;11.55;;;;;;;1.89;100.00;102360.63;4982718;28;20034;-78
2021/12/21 11:02:09;;;;;;;35.88;11.32;;;;;;;1.97;100.00;102372.19;4993694;28;20042;-78
2021/12/21 11:04:40;;;;;;;30.65;11.48;;;;;;;2.22;100.00;102371.69;4970802;28;20039;-79
2021/12/21 11:10:11;;;;;;;27.20;12.13;;;;;;;2.26;100.00;102360.78;4993275;28;20038;-78
2021/12/21 11:12:48;;;;;;;35.05;12.88;;;;;;;1.96;100.00;102360.47;4989039;28;20038;-78
2021/12/21 11:15:16;;;;;;;28.20;11.10;;;;;;;2.79;100.00;102363.28;4979167;28;20038;-78
2021/12/21 11:17:42;;;;;;;29.90;10.93;;;;;;;2.91;100.00;102359.41;4972203;28;20448;-79
2021/12/21 11:20:10;;;;;;;27.95;10.45;;;;;;;1.90;100.00;102370.47;4988453;28;20074;-79
2021/12/21 11:22:38;;;;;;;21.73;9.80;;;;;;;2.16;100.00;102362.78;4996189;28;20109;-78
2021/12/21 11:25:05;;;;;;;25.30;10.93;;;;;;;1.94;100.00;102362.31;4985250;28;20062;-78
2021/12/21 11:27:34;;;;;;;26.27;10.10;;;;;;;2.36;100.00;102358.78;4983788;28;20125;-79
2021/12/21 11:30:02;;;;;;;27.52;10.70;;;;;;;2.33;100.00;102348.06;4989005;28;20034;-78
2021/12/21 11:32:30;;;;;;;28.48;11.10;;;;;;;2.25;100.00;102350.91;4994241;28;20541;-79
2021/12/21 11:37:20;;;;;;;27.95;11.98;;;;;;;1.89;100.00;102348.00;4982968;28;20046;-80
2021/12/21 11:37:45;;;;;;;30.50;11.98;;;;;;;2.29;100.00;102349.91;4986109;28;20030;-78
2021/12/21 11:40:15;;;;;;;24.95;11.77;;;;;;;2.47;100.00;102340.53;4992561;28;20385;-78
2021/12/21 11:42:51;;;;;;;30.88;12.13;;;;;;;1.62;100.00;102331.41;4965466;28;20045;-81
2021/12/21 11:45:27;;;;;;;26.83;12.80;;;;;;;1.48;100.00;102317.25;4990004;28;20043;-79
2021/12/21 11:48:10;;;;;;;30.63;12.50;;;;;;;1.52;100.00;102315.38;4995364;28;20054;-80
2021/12/21 11:50:38;;;;;;;27.20;12.45;;;;;;;1.44;100.00;102292.13;4982053;28;20066;-80
2021/12/21 11:53:09;;;;;;;33.55;12.75;;;;;;;1.66;100.00;102307.94;4982087;28;20127;-80
2021/12/21 11:55:38;;;;;;;30.58;13.20;;;;;;;1.71;100.00;102303.34;4979483;28;20078;-79
2021/12/21 11:58:23;;;;;;;30.27;12.30;;;;;;;1.79;100.00;102312.19;4983175;28;20046;-79